Pagina principale
METAR-TAF:

METAR-TAF

Aeroporti :

Payerne, Svizzera

latitudine: 46-49N, longitudine: 006-57E, altezza: 490 m

Osservazione

Il bollettino è stato emesso 15 minuti fa, alle 07:20 UTC
Vento 3 kt da nord/nord-est, variando fra nord/nord-ovest e est/nord-est
Temperature 6°C
Umidità 93%
Pressione 1025 hPa
Visibilità: 6000 m
Cielo coperto ad un'altezza di 600 ft

METAR: LSMP 160720Z 03003KT 340V060 6000 OVC006 06/05 Q1025 RMK YLO

Ora: 08:35 (07:35 UTC)


TAF: mancante

Osservazioni e previsioni meteorologiche di più di 4000 aeroporti (messaggi METAR e TAF).

Le stazioni disponibili sono rappresentate dai dischi gialli e rossi sulla carta.

Puntare il mouse per vedere il nome della stazione.

Clicca sopra per visualizzare le osservazioni e previsioni meteorologiche.

Per cambiare la mappa : fare clic sui pulsanti verdi con una croce nera per ingrandire, il pulsante verde con un trattino per diminuire, o sulla freccia verde per le mappe adiacenti.


METAR-TAF: